Morgan Ray — WDF6085 — position and weather

sailwx.info

Track history (hours):
 
Tides and Currents Weather Stations Pressure Air Temp Water Temp Dewpoint Dewpoint Depression Visibility Wind Speed Wind Dir Waves Ship Positions

Morgan Ray

Owner: Daigle Towing Service LLC., Belle Chasse, LA. More information available from US FCC via Universal Licensing System and Coast Guard Vessel Documentation Center.

Last reported at 2016-May-30 13:33 UTC. Time now 2016-May-30 14:31 UTC.
Position N 29°53' W 089°60'.

Length 20 m; draft 2 m.

Type: Tug. MMSI: 367470470.

Date/timePositionNaut miles runAvg speedWind from/ knotsBaromVisibWave heightAir tempDewpointWater temp
2016-May-30 13:33N 29°53' W 089°60'0 0.0
2016-May-30 12:33N 29°53' W 089°60'0 0.0
2016-May-30 11:33N 29°53' W 089°60'0 0.0
2016-May-30 10:33N 29°53' W 089°60'0 0.0
2016-May-30 09:33N 29°53' W 089°60'0 0.0
2016-May-30 08:33N 29°53' W 089°60'0 0.0
2016-May-30 07:33N 29°53' W 089°60'0 0.0
2016-May-30 06:33N 29°53' W 089°60'0 0.0
2016-May-30 05:29N 29°53' W 089°60'0 0.0
2016-May-30 04:33N 29°53' W 089°60'0 0.0
2016-May-30 03:33N 29°53' W 089°60'0 0.0
2016-May-30 02:34N 29°53' W 089°60'0 0.0
2016-May-30 01:33N 29°53' W 089°60'0 0.0
2016-May-30 00:33N 29°53' W 089°60'0 0.0
2016-May-29 23:33N 29°53' W 089°60'0 0.0
2016-May-29 22:33N 29°53' W 089°60'0 0.0
2016-May-29 21:33N 29°53' W 089°60'0 0.0
2016-May-29 20:33N 29°53' W 089°60'0 0.0
2016-May-29 19:33N 29°53' W 089°60'2 1.6
2016-May-29 18:33N 29°52' W 090°01'4 4.1
2016-May-29 17:32N 29°49' W 090°04'30 3.0
2016-May-29 07:33N 29°34' W 090°33'4 3.6
2016-May-29 06:33N 29°35' W 090°37'4 3.5
2016-May-29 05:33N 29°36' W 090°41'2 2.1
2016-May-29 04:33N 29°35' W 090°43'3 3.1
2016-May-29 03:33N 29°33' W 090°45'0 0.0
2016-May-29 02:33N 29°33' W 090°45'0 0.0
2016-May-29 01:33N 29°33' W 090°45'4 0.1
2016-May-27 07:33N 29°32' W 090°50'6 6.5
2016-May-27 06:33N 29°35' W 090°43'5 4.6
2016-May-27 05:33N 29°35' W 090°38'33 6.3
2016-May-27 00:15N 29°50' W 090°04'4 5.6
2016-May-26 23:33N 29°54' W 090°05'0 0.0
2016-May-26 22:33N 29°54' W 090°05'0 0.0
2016-May-26 21:33N 29°54' W 090°05'0 0.0
2016-May-26 20:33N 29°54' W 090°05'0 0.0
2016-May-26 19:33N 29°54' W 090°05'0 0.0
2016-May-26 18:33N 29°54' W 090°05'0 0.0
2016-May-26 17:33N 29°54' W 090°05'0 0.0
2016-May-26 16:33N 29°54' W 090°05'0 0.0
2016-May-26 15:33N 29°54' W 090°05'0 0.0
2016-May-26 14:33N 29°54' W 090°05'0 0.0
2016-May-26 13:33N 29°54' W 090°05'0 0.0
2016-May-26 12:33N 29°54' W 090°05'0 0.0
2016-May-26 11:33N 29°54' W 090°05'0 0.0
2016-May-26 10:33N 29°54' W 090°05'0 0.0
2016-May-26 09:33N 29°54' W 090°05'0 0.0
2016-May-26 08:33N 29°54' W 090°05'0 0.0
2016-May-26 07:33N 29°54' W 090°05'0 0.0
2016-May-26 06:33N 29°54' W 090°05'0 0.0
2016-May-26 05:33N 29°54' W 090°05'0 0.0
2016-May-26 04:33N 29°54' W 090°05'0 0.0
2016-May-26 03:33N 29°54' W 090°05'0 0.0
2016-May-26 02:33N 29°54' W 090°05'3 2.8
2016-May-26 01:33N 29°51' W 090°04'0 0.2
2016-May-26 00:31N 29°51' W 090°04'2 2.6
2016-May-25 23:34N 29°54' W 090°05'0 0.1
2016-May-25 22:33N 29°54' W 090°05'0 0.0
2016-May-25 21:33N 29°54' W 090°05'0 0.0
2016-May-25 20:33N 29°54' W 090°05'0 0.0
2016-May-25 19:33N 29°54' W 090°05'0 0.0
2016-May-25 18:33N 29°54' W 090°05'0 0.0
2016-May-25 17:33N 29°54' W 090°05'0 0.0
2016-May-25 16:34N 29°54' W 090°05'2 2.3
2016-May-25 15:33N 29°52' W 090°04'2 1.9
2016-May-25 14:33N 29°50' W 090°03'3 2.8
2016-May-25 13:33N 29°52' W 090°01'0 0.3
2016-May-25 12:25N 29°52' W 090°00'3 3.3
2016-May-25 11:32N 29°55' W 089°58'0 0.2
2016-May-25 10:17N 29°55' W 089°58'2 2.4
2016-May-25 09:33N 29°55' W 089°56'3 2.9
2016-May-25 08:32N 29°53' W 089°58'36 1.7
2016-May-24 10:33N 29°34' W 090°34'5 5.4
2016-May-24 09:33N 29°36' W 090°40'3 3.3
2016-May-24 08:33N 29°35' W 090°43'8 0.9
2016-May-24 00:09N 29°32' W 090°51'4 7.4
2016-May-23 23:33N 29°32' W 090°46'3 3.3
2016-May-23 22:33N 29°34' W 090°43'3 2.9
2016-May-23 21:33N 29°37' W 090°42'8 6.4
2016-May-23 20:20N 29°34' W 090°33'32 5.3
2016-May-23 14:18N 29°54' W 090°05'0 0.0
2016-May-23 13:33N 29°54' W 090°05'0 0.0
2016-May-23 12:31N 29°54' W 090°05'0 0.0
2016-May-23 11:33N 29°54' W 090°05'0 0.0
2016-May-23 10:33N 29°54' W 090°05'0 0.0
2016-May-23 09:33N 29°54' W 090°05'0 0.0
2016-May-23 08:33N 29°54' W 090°05'0 0.0
2016-May-23 07:34N 29°54' W 090°05'0 0.0
2016-May-23 06:33N 29°54' W 090°05'0 0.0
2016-May-23 05:33N 29°54' W 090°05'0 0.0
2016-May-22 09:33N 29°54' W 090°05'0 0.0
2016-May-22 08:33N 29°54' W 090°05'0 0.0
2016-May-22 07:33N 29°54' W 090°05'0 0.0
2016-May-22 06:33N 29°54' W 090°05'0 0.0
2016-May-22 05:33N 29°54' W 090°05'0 0.0
2016-May-21 23:22N 29°54' W 090°05'7 0.7
2016-May-21 13:32N 29°60' W 090°00'2 2.4
2016-May-21 12:33N 29°58' W 090°02'1 0.6
2016-May-21 11:33N 29°57' W 090°02'0 0.0
2016-May-21 10:33N 29°57' W 090°02'0 0.0
2016-May-21 09:34N 29°57' W 090°02'0 0.0
2016-May-21 08:33N 29°57' W 090°02'0 0.0
2016-May-21 07:33N 29°57' W 090°02'0 0.0
2016-May-21 06:33N 29°57' W 090°02'0 0.0
2016-May-21 05:33N 29°57' W 090°02'0 0.0
2016-May-21 04:33N 29°57' W 090°02'0 0.0
2016-May-21 03:33N 29°57' W 090°02'0 0.0
2016-May-21 02:33N 29°57' W 090°02'0 0.0
2016-May-21 01:33N 29°57' W 090°02'0 0.0
2016-May-21 00:33N 29°57' W 090°02'0 0.0
2016-May-20 23:34N 29°57' W 090°02'0 0.0
2016-May-20 22:33N 29°57' W 090°02'0 0.0
2016-May-20 21:33N 29°57' W 090°02'0 0.0
2016-May-20 20:33N 29°57' W 090°02'0 0.5
2016-May-20 19:28N 29°57' W 090°01'6 6.6
2016-May-20 18:34N 29°55' W 090°08'  
Track history (hours):
 
Tides and Currents Weather Stations Pressure Air Temp Water Temp Dewpoint Dewpoint Depression Visibility Wind Speed Wind Dir Waves Ship Positions

Morgan Ray

Owner: Daigle Towing Service LLC., Belle Chasse, LA. More information available from US FCC via Universal Licensing System and Coast Guard Vessel Documentation Center.

Last reported at 2016-May-30 13:33 UTC. Time now 2016-May-30 14:31 UTC.
Position N 29°53' W 089°60'.

Length 20 m; draft 2 m.

Type: Tug. MMSI: 367470470.

Date/timePositionNaut miles runAvg speedWind from/ knotsBaromVisibWave heightAir tempDewpointWater temp
2016-May-30 13:33N 29°53' W 089°60'0 0.0
2016-May-30 12:33N 29°53' W 089°60'0 0.0
2016-May-30 11:33N 29°53' W 089°60'0 0.0
2016-May-30 10:33N 29°53' W 089°60'0 0.0
2016-May-30 09:33N 29°53' W 089°60'0 0.0
2016-May-30 08:33N 29°53' W 089°60'0 0.0
2016-May-30 07:33N 29°53' W 089°60'0 0.0
2016-May-30 06:33N 29°53' W 089°60'0 0.0
2016-May-30 05:29N 29°53' W 089°60'0 0.0
2016-May-30 04:33N 29°53' W 089°60'0 0.0
2016-May-30 03:33N 29°53' W 089°60'0 0.0
2016-May-30 02:34N 29°53' W 089°60'0 0.0
2016-May-30 01:33N 29°53' W 089°60'0 0.0
2016-May-30 00:33N 29°53' W 089°60'0 0.0
2016-May-29 23:33N 29°53' W 089°60'0 0.0
2016-May-29 22:33N 29°53' W 089°60'0 0.0
2016-May-29 21:33N 29°53' W 089°60'0 0.0
2016-May-29 20:33N 29°53' W 089°60'0 0.0
2016-May-29 19:33N 29°53' W 089°60'2 1.6
2016-May-29 18:33N 29°52' W 090°01'4 4.1
2016-May-29 17:32N 29°49' W 090°04'30 3.0
2016-May-29 07:33N 29°34' W 090°33'4 3.6
2016-May-29 06:33N 29°35' W 090°37'4 3.5
2016-May-29 05:33N 29°36' W 090°41'2 2.1
2016-May-29 04:33N 29°35' W 090°43'3 3.1
2016-May-29 03:33N 29°33' W 090°45'0 0.0
2016-May-29 02:33N 29°33' W 090°45'0 0.0
2016-May-29 01:33N 29°33' W 090°45'4 0.1
2016-May-27 07:33N 29°32' W 090°50'6 6.5
2016-May-27 06:33N 29°35' W 090°43'5 4.6
2016-May-27 05:33N 29°35' W 090°38'33 6.3
2016-May-27 00:15N 29°50' W 090°04'4 5.6
2016-May-26 23:33N 29°54' W 090°05'0 0.0
2016-May-26 22:33N 29°54' W 090°05'0 0.0
2016-May-26 21:33N 29°54' W 090°05'0 0.0
2016-May-26 20:33N 29°54' W 090°05'0 0.0
2016-May-26 19:33N 29°54' W 090°05'0 0.0
2016-May-26 18:33N 29°54' W 090°05'0 0.0
2016-May-26 17:33N 29°54' W 090°05'0 0.0
2016-May-26 16:33N 29°54' W 090°05'0 0.0
2016-May-26 15:33N 29°54' W 090°05'0 0.0
2016-May-26 14:33N 29°54' W 090°05'0 0.0
2016-May-26 13:33N 29°54' W 090°05'0 0.0
2016-May-26 12:33N 29°54' W 090°05'0 0.0
2016-May-26 11:33N 29°54' W 090°05'0 0.0
2016-May-26 10:33N 29°54' W 090°05'0 0.0
2016-May-26 09:33N 29°54' W 090°05'0 0.0
2016-May-26 08:33N 29°54' W 090°05'0 0.0
2016-May-26 07:33N 29°54' W 090°05'0 0.0
2016-May-26 06:33N 29°54' W 090°05'0 0.0
2016-May-26 05:33N 29°54' W 090°05'0 0.0
2016-May-26 04:33N 29°54' W 090°05'0 0.0
2016-May-26 03:33N 29°54' W 090°05'0 0.0
2016-May-26 02:33N 29°54' W 090°05'3 2.8
2016-May-26 01:33N 29°51' W 090°04'0 0.2
2016-May-26 00:31N 29°51' W 090°04'2 2.6
2016-May-25 23:34N 29°54' W 090°05'0 0.1
2016-May-25 22:33N 29°54' W 090°05'0 0.0
2016-May-25 21:33N 29°54' W 090°05'0 0.0
2016-May-25 20:33N 29°54' W 090°05'0 0.0
2016-May-25 19:33N 29°54' W 090°05'0 0.0
2016-May-25 18:33N 29°54' W 090°05'0 0.0
2016-May-25 17:33N 29°54' W 090°05'0 0.0
2016-May-25 16:34N 29°54' W 090°05'2 2.3
2016-May-25 15:33N 29°52' W 090°04'2 1.9
2016-May-25 14:33N 29°50' W 090°03'3 2.8
2016-May-25 13:33N 29°52' W 090°01'0 0.3
2016-May-25 12:25N 29°52' W 090°00'3 3.3
2016-May-25 11:32N 29°55' W 089°58'0 0.2
2016-May-25 10:17N 29°55' W 089°58'2 2.4
2016-May-25 09:33N 29°55' W 089°56'3 2.9
2016-May-25 08:32N 29°53' W 089°58'36 1.7
2016-May-24 10:33N 29°34' W 090°34'5 5.4
2016-May-24 09:33N 29°36' W 090°40'3 3.3
2016-May-24 08:33N 29°35' W 090°43'8 0.9
2016-May-24 00:09N 29°32' W 090°51'4 7.4
2016-May-23 23:33N 29°32' W 090°46'3 3.3
2016-May-23 22:33N 29°34' W 090°43'3 2.9
2016-May-23 21:33N 29°37' W 090°42'8 6.4
2016-May-23 20:20N 29°34' W 090°33'32 5.3
2016-May-23 14:18N 29°54' W 090°05'0 0.0
2016-May-23 13:33N 29°54' W 090°05'0 0.0
2016-May-23 12:31N 29°54' W 090°05'0 0.0
2016-May-23 11:33N 29°54' W 090°05'0 0.0
2016-May-23 10:33N 29°54' W 090°05'0 0.0
2016-May-23 09:33N 29°54' W 090°05'0 0.0
2016-May-23 08:33N 29°54' W 090°05'0 0.0
2016-May-23 07:34N 29°54' W 090°05'0 0.0
2016-May-23 06:33N 29°54' W 090°05'0 0.0
2016-May-23 05:33N 29°54' W 090°05'0 0.0
2016-May-22 09:33N 29°54' W 090°05'0 0.0
2016-May-22 08:33N 29°54' W 090°05'0 0.0
2016-May-22 07:33N 29°54' W 090°05'0 0.0
2016-May-22 06:33N 29°54' W 090°05'0 0.0
2016-May-22 05:33N 29°54' W 090°05'0 0.0
2016-May-21 23:22N 29°54' W 090°05'7 0.7
2016-May-21 13:32N 29°60' W 090°00'2 2.4
2016-May-21 12:33N 29°58' W 090°02'1 0.6
2016-May-21 11:33N 29°57' W 090°02'0 0.0
2016-May-21 10:33N 29°57' W 090°02'0 0.0
2016-May-21 09:34N 29°57' W 090°02'0 0.0
2016-May-21 08:33N 29°57' W 090°02'0 0.0
2016-May-21 07:33N 29°57' W 090°02'0 0.0
2016-May-21 06:33N 29°57' W 090°02'0 0.0
2016-May-21 05:33N 29°57' W 090°02'0 0.0
2016-May-21 04:33N 29°57' W 090°02'0 0.0
2016-May-21 03:33N 29°57' W 090°02'0 0.0
2016-May-21 02:33N 29°57' W 090°02'0 0.0
2016-May-21 01:33N 29°57' W 090°02'0 0.0
2016-May-21 00:33N 29°57' W 090°02'0 0.0
2016-May-20 23:34N 29°57' W 090°02'0 0.0
2016-May-20 22:33N 29°57' W 090°02'0 0.0
2016-May-20 21:33N 29°57' W 090°02'0 0.0
2016-May-20 20:33N 29°57' W 090°02'0 0.5
2016-May-20 19:28N 29°57' W 090°01'6 6.6
2016-May-20 18:34N 29°55' W 090°08'  

Dump ship's entire track history